sensor_id;sensor_type;location;lat;lon;timestamp;noise_LAeq;noise_LA_min;noise_LA_max;noise_LA01;noise_LA95
18377;Laerm;9315;52.624;13.544;2023-10-31T00:00:16;58.32;34.23;75.38;;
18377;Laerm;9315;52.624;13.544;2023-10-31T00:02:44;37.42;33.52;44.36;;
18377;Laerm;9315;52.624;13.544;2023-10-31T00:05:11;56.16;33.28;72.03;;
18377;Laerm;9315;52.624;13.544;2023-10-31T00:07:39;52.92;32.10;68.90;;
18377;Laerm;9315;52.624;13.544;2023-10-31T00:10:07;52.53;31.67;71.00;;
18377;Laerm;9315;52.624;13.544;2023-10-31T00:12:34;34.59;32.38;38.24;;
18377;Laerm;9315;52.624;13.544;2023-10-31T00:15:02;48.44;33.26;63.22;;
18377;Laerm;9315;52.624;13.544;2023-10-31T00:17:29;48.39;33.10;64.35;;
18377;Laerm;9315;52.624;13.544;2023-10-31T00:19:57;57.10;35.08;75.69;;
18377;Laerm;9315;52.624;13.544;2023-10-31T00:22:24;58.73;33.46;75.64;;
18377;Laerm;9315;52.624;13.544;2023-10-31T00:24:52;57.25;33.86;75.98;;
18377;Laerm;9315;52.624;13.544;2023-10-31T00:27:19;59.90;35.03;75.92;;
18377;Laerm;9315;52.624;13.544;2023-10-31T00:29:47;54.39;37.46;72.54;;
18377;Laerm;9315;52.624;13.544;2023-10-31T00:32:14;39.57;37.47;43.32;;
18377;Laerm;9315;52.624;13.544;2023-10-31T00:34:42;39.02;36.34;51.02;;
18377;Laerm;9315;52.624;13.544;2023-10-31T00:37:09;38.74;36.28;45.74;;
18377;Laerm;9315;52.624;13.544;2023-10-31T00:39:37;49.95;36.66;64.71;;
18377;Laerm;9315;52.624;13.544;2023-10-31T00:42:04;39.28;37.67;45.44;;
18377;Laerm;9315;52.624;13.544;2023-10-31T00:44:32;60.24;36.54;74.19;;
18377;Laerm;9315;52.624;13.544;2023-10-31T00:46:59;42.45;38.79;54.22;;
18377;Laerm;9315;52.624;13.544;2023-10-31T00:49:26;54.15;37.53;72.44;;
18377;Laerm;9315;52.624;13.544;2023-10-31T00:51:54;41.04;38.43;51.05;;
18377;Laerm;9315;52.624;13.544;2023-10-31T00:54:22;52.98;39.52;68.08;;
18377;Laerm;9315;52.624;13.544;2023-10-31T00:56:50;58.53;39.44;72.09;;
18377;Laerm;9315;52.624;13.544;2023-10-31T00:59:18;60.00;40.77;77.86;;
18377;Laerm;9315;52.624;13.544;2023-10-31T01:01:45;49.68;37.55;65.08;;
18377;Laerm;9315;52.624;13.544;2023-10-31T01:04:12;38.92;36.94;45.92;;
18377;Laerm;9315;52.624;13.544;2023-10-31T01:06:43;53.53;36.05;68.75;;
18377;Laerm;9315;52.624;13.544;2023-10-31T01:09:11;41.13;36.52;51.51;;
18377;Laerm;9315;52.624;13.544;2023-10-31T01:11:39;55.50;36.10;70.66;;
18377;Laerm;9315;52.624;13.544;2023-10-31T01:14:06;37.99;36.27;41.72;;
18377;Laerm;9315;52.624;13.544;2023-10-31T01:16:34;40.29;37.69;48.52;;
18377;Laerm;9315;52.624;13.544;2023-10-31T01:19:01;41.58;39.68;46.53;;
18377;Laerm;9315;52.624;13.544;2023-10-31T01:21:29;41.54;39.90;45.99;;
18377;Laerm;9315;52.624;13.544;2023-10-31T01:23:58;56.95;40.07;76.11;;
18377;Laerm;9315;52.624;13.544;2023-10-31T01:26:26;57.49;37.32;76.35;;
18377;Laerm;9315;52.624;13.544;2023-10-31T01:28:53;38.70;36.63;41.96;;
18377;Laerm;9315;52.624;13.544;2023-10-31T01:31:21;57.17;36.22;75.41;;
18377;Laerm;9315;52.624;13.544;2023-10-31T01:33:48;59.09;37.72;74.79;;
18377;Laerm;9315;52.624;13.544;2023-10-31T01:36:16;58.17;38.75;77.85;;
18377;Laerm;9315;52.624;13.544;2023-10-31T01:38:45;59.10;38.73;78.63;;
18377;Laerm;9315;52.624;13.544;2023-10-31T01:41:13;40.75;38.63;45.52;;
18377;Laerm;9315;52.624;13.544;2023-10-31T01:43:41;60.97;35.94;75.75;;
18377;Laerm;9315;52.624;13.544;2023-10-31T01:46:08;42.13;37.29;47.53;;
18377;Laerm;9315;52.624;13.544;2023-10-31T01:48:36;62.01;38.63;80.36;;
18377;Laerm;9315;52.624;13.544;2023-10-31T01:51:04;59.12;38.08;77.96;;
18377;Laerm;9315;52.624;13.544;2023-10-31T01:53:33;53.62;39.36;69.30;;
18377;Laerm;9315;52.624;13.544;2023-10-31T01:56:03;61.36;38.44;81.02;;
18377;Laerm;9315;52.624;13.544;2023-10-31T01:58:35;61.88;41.10;76.12;;
18377;Laerm;9315;52.624;13.544;2023-10-31T02:01:05;64.80;42.49;81.87;;
18377;Laerm;9315;52.624;13.544;2023-10-31T02:03:33;62.59;42.70;77.46;;
18377;Laerm;9315;52.624;13.544;2023-10-31T02:06:01;63.49;41.80;80.62;;
18377;Laerm;9315;52.624;13.544;2023-10-31T02:08:29;64.86;41.33;82.92;;
18377;Laerm;9315;52.624;13.544;2023-10-31T02:10:57;44.25;41.96;51.77;;
18377;Laerm;9315;52.624;13.544;2023-10-31T02:13:25;44.95;43.22;53.99;;
18377;Laerm;9315;52.624;13.544;2023-10-31T02:15:52;63.30;44.00;78.34;;
18377;Laerm;9315;52.624;13.544;2023-10-31T02:18:20;63.82;44.46;78.73;;
18377;Laerm;9315;52.624;13.544;2023-10-31T02:20:48;45.70;44.18;48.59;;
18377;Laerm;9315;52.624;13.544;2023-10-31T02:23:16;60.18;44.37;74.29;;
18377;Laerm;9315;52.624;13.544;2023-10-31T02:25:44;66.53;45.25;80.88;;
18377;Laerm;9315;52.624;13.544;2023-10-31T02:28:11;58.70;45.51;74.66;;
18377;Laerm;9315;52.624;13.544;2023-10-31T02:30:38;46.57;45.37;49.31;;
18377;Laerm;9315;52.624;13.544;2023-10-31T02:33:06;69.11;46.11;86.19;;
18377;Laerm;9315;52.624;13.544;2023-10-31T02:35:33;54.66;45.06;72.57;;
18377;Laerm;9315;52.624;13.544;2023-10-31T02:38:01;60.39;43.76;75.84;;
18377;Laerm;9315;52.624;13.544;2023-10-31T02:40:29;62.28;42.79;76.40;;
18377;Laerm;9315;52.624;13.544;2023-10-31T02:42:56;43.10;41.98;46.15;;
18377;Laerm;9315;52.624;13.544;2023-10-31T02:45:24;62.20;41.95;76.94;;
18377;Laerm;9315;52.624;13.544;2023-10-31T02:47:51;42.43;40.83;46.41;;
18377;Laerm;9315;52.624;13.544;2023-10-31T02:50:19;65.87;41.25;81.56;;
18377;Laerm;9315;52.624;13.544;2023-10-31T02:52:46;53.70;42.25;75.40;;
18377;Laerm;9315;52.624;13.544;2023-10-31T02:55:14;59.38;42.68;77.77;;
18377;Laerm;9315;52.624;13.544;2023-10-31T02:57:41;63.88;43.40;76.16;;
18377;Laerm;9315;52.624;13.544;2023-10-31T03:00:10;66.57;43.55;79.48;;
18377;Laerm;9315;52.624;13.544;2023-10-31T03:02:37;66.88;44.68;79.69;;
18377;Laerm;9315;52.624;13.544;2023-10-31T03:05:06;65.66;43.48;82.64;;
18377;Laerm;9315;52.624;13.544;2023-10-31T03:07:33;65.32;43.71;81.65;;
18377;Laerm;9315;52.624;13.544;2023-10-31T03:10:02;67.58;44.65;79.01;;
18377;Laerm;9315;52.624;13.544;2023-10-31T03:12:29;59.01;45.93;77.15;;
18377;Laerm;9315;52.624;13.544;2023-10-31T03:14:57;70.12;46.90;81.92;;
18377;Laerm;9315;52.624;13.544;2023-10-31T03:17:24;66.08;45.52;80.64;;
18377;Laerm;9315;52.624;13.544;2023-10-31T03:19:53;65.11;46.21;81.26;;
18377;Laerm;9315;52.624;13.544;2023-10-31T03:22:21;63.46;44.24;80.85;;
18377;Laerm;9315;52.624;13.544;2023-10-31T03:24:48;61.19;43.75;74.94;;
18377;Laerm;9315;52.624;13.544;2023-10-31T03:27:16;61.71;41.57;77.66;;
18377;Laerm;9315;52.624;13.544;2023-10-31T03:29:43;60.45;41.22;75.21;;
18377;Laerm;9315;52.624;13.544;2023-10-31T03:32:12;67.50;41.33;79.22;;
18377;Laerm;9315;52.624;13.544;2023-10-31T03:34:40;67.47;40.07;85.70;;
18377;Laerm;9315;52.624;13.544;2023-10-31T03:37:07;71.33;45.42;81.70;;
18377;Laerm;9315;52.624;13.544;2023-10-31T03:39:35;69.31;44.16;82.64;;
18377;Laerm;9315;52.624;13.544;2023-10-31T03:42:02;68.90;41.51;78.85;;
18377;Laerm;9315;52.624;13.544;2023-10-31T03:44:30;66.61;41.57;81.56;;
18377;Laerm;9315;52.624;13.544;2023-10-31T03:46:57;70.05;42.42;81.65;;
18377;Laerm;9315;52.624;13.544;2023-10-31T03:49:25;69.03;42.50;80.78;;
18377;Laerm;9315;52.624;13.544;2023-10-31T03:51:53;66.25;41.08;80.27;;
18377;Laerm;9315;52.624;13.544;2023-10-31T03:54:20;68.20;42.65;78.82;;
18377;Laerm;9315;52.624;13.544;2023-10-31T03:56:50;68.03;41.35;81.11;;
18377;Laerm;9315;52.624;13.544;2023-10-31T03:59:17;69.64;46.22;80.14;;
18377;Laerm;9315;52.624;13.544;2023-10-31T04:01:45;66.58;41.22;78.44;;
18377;Laerm;9315;52.624;13.544;2023-10-31T04:04:13;69.39;43.45;78.86;;
18377;Laerm;9315;52.624;13.544;2023-10-31T04:06:40;68.26;45.00;79.70;;
18377;Laerm;9315;52.624;13.544;2023-10-31T04:09:09;70.37;45.98;81.35;;
18377;Laerm;9315;52.624;13.544;2023-10-31T04:11:37;70.70;47.07;83.21;;
18377;Laerm;9315;52.624;13.544;2023-10-31T04:14:05;68.69;43.41;80.72;;
18377;Laerm;9315;52.624;13.544;2023-10-31T04:16:41;67.96;46.09;81.39;;
18377;Laerm;9315;52.624;13.544;2023-10-31T04:19:13;69.72;46.81;78.58;;
18377;Laerm;9315;52.624;13.544;2023-10-31T04:21:40;72.85;48.85;83.59;;
18377;Laerm;9315;52.624;13.544;2023-10-31T04:24:10;69.97;46.90;78.75;;
18377;Laerm;9315;52.624;13.544;2023-10-31T04:26:42;69.64;45.36;81.53;;
18377;Laerm;9315;52.624;13.544;2023-10-31T04:29:09;71.66;50.22;80.48;;
18377;Laerm;9315;52.624;13.544;2023-10-31T04:31:37;70.75;46.44;81.45;;
18377;Laerm;9315;52.624;13.544;2023-10-31T04:34:10;71.36;48.33;82.15;;
18377;Laerm;9315;52.624;13.544;2023-10-31T04:36:38;71.90;49.21;81.81;;
18377;Laerm;9315;52.624;13.544;2023-10-31T04:39:06;72.14;46.63;82.61;;
18377;Laerm;9315;52.624;13.544;2023-10-31T04:41:33;72.74;48.24;81.37;;
18377;Laerm;9315;52.624;13.544;2023-10-31T04:44:01;70.07;46.40;80.51;;
18377;Laerm;9315;52.624;13.544;2023-10-31T04:46:28;71.18;47.61;81.93;;
18377;Laerm;9315;52.624;13.544;2023-10-31T04:48:56;69.59;45.63;79.15;;
18377;Laerm;9315;52.624;13.544;2023-10-31T04:51:23;68.97;48.07;79.55;;
18377;Laerm;9315;52.624;13.544;2023-10-31T04:53:51;71.55;47.43;82.23;;
18377;Laerm;9315;52.624;13.544;2023-10-31T04:56:18;69.52;45.61;80.70;;
18377;Laerm;9315;52.624;13.544;2023-10-31T04:58:46;71.86;45.37;79.85;;
18377;Laerm;9315;52.624;13.544;2023-10-31T05:01:14;70.31;46.30;80.01;;
18377;Laerm;9315;52.624;13.544;2023-10-31T05:03:41;69.58;44.33;80.51;;
18377;Laerm;9315;52.624;13.544;2023-10-31T05:06:09;72.08;46.88;81.53;;
18377;Laerm;9315;52.624;13.544;2023-10-31T05:08:36;70.55;46.73;82.54;;
18377;Laerm;9315;52.624;13.544;2023-10-31T05:11:04;72.96;47.19;83.77;;
18377;Laerm;9315;52.624;13.544;2023-10-31T05:13:31;72.43;48.95;81.17;;
18377;Laerm;9315;52.624;13.544;2023-10-31T05:15:59;71.17;46.98;81.31;;
18377;Laerm;9315;52.624;13.544;2023-10-31T05:18:26;71.57;47.16;83.49;;
18377;Laerm;9315;52.624;13.544;2023-10-31T05:20:54;70.77;47.98;83.94;;
18377;Laerm;9315;52.624;13.544;2023-10-31T05:23:21;70.85;45.71;81.55;;
18377;Laerm;9315;52.624;13.544;2023-10-31T05:25:49;71.19;46.85;81.50;;
18377;Laerm;9315;52.624;13.544;2023-10-31T05:28:16;71.72;46.27;80.58;;
18377;Laerm;9315;52.624;13.544;2023-10-31T05:30:43;71.70;48.73;80.57;;
18377;Laerm;9315;52.624;13.544;2023-10-31T05:33:11;73.93;49.47;83.30;;
18377;Laerm;9315;52.624;13.544;2023-10-31T05:35:39;72.13;52.98;81.75;;
18377;Laerm;9315;52.624;13.544;2023-10-31T05:38:06;73.43;53.13;82.55;;
18377;Laerm;9315;52.624;13.544;2023-10-31T05:40:33;73.79;53.70;82.91;;
18377;Laerm;9315;52.624;13.544;2023-10-31T05:43:03;73.52;52.30;84.29;;
18377;Laerm;9315;52.624;13.544;2023-10-31T05:45:30;75.22;53.24;84.13;;
18377;Laerm;9315;52.624;13.544;2023-10-31T05:47:58;74.34;53.39;84.47;;
18377;Laerm;9315;52.624;13.544;2023-10-31T05:50:25;74.77;50.64;84.87;;
18377;Laerm;9315;52.624;13.544;2023-10-31T05:52:53;73.06;51.02;84.39;;
18377;Laerm;9315;52.624;13.544;2023-10-31T05:55:20;74.44;50.01;82.40;;
18377;Laerm;9315;52.624;13.544;2023-10-31T05:57:48;77.19;55.83;87.38;;
18377;Laerm;9315;52.624;13.544;2023-10-31T06:00:16;72.97;48.29;81.28;;
18377;Laerm;9315;52.624;13.544;2023-10-31T06:02:43;76.42;48.95;84.70;;
18377;Laerm;9315;52.624;13.544;2023-10-31T06:05:11;74.08;48.93;86.31;;
18377;Laerm;9315;52.624;13.544;2023-10-31T06:07:38;73.83;49.10;82.45;;
18377;Laerm;9315;52.624;13.544;2023-10-31T06:10:07;74.45;50.03;83.40;;
18377;Laerm;9315;52.624;13.544;2023-10-31T06:12:34;76.41;51.57;87.83;;
18377;Laerm;9315;52.624;13.544;2023-10-31T06:15:02;73.71;52.33;83.74;;
18377;Laerm;9315;52.624;13.544;2023-10-31T06:17:30;74.98;52.15;84.03;;
18377;Laerm;9315;52.624;13.544;2023-10-31T06:20:02;76.73;53.42;85.89;;
18377;Laerm;9315;52.624;13.544;2023-10-31T06:22:30;74.34;52.25;85.01;;
18377;Laerm;9315;52.624;13.544;2023-10-31T06:24:57;73.79;53.00;82.42;;
18377;Laerm;9315;52.624;13.544;2023-10-31T06:27:25;75.93;50.04;84.70;;
18377;Laerm;9315;52.624;13.544;2023-10-31T06:29:53;75.56;51.87;85.98;;
18377;Laerm;9315;52.624;13.544;2023-10-31T06:32:42;72.19;50.02;81.77;;
18377;Laerm;9315;52.624;13.544;2023-10-31T06:35:10;72.27;51.78;82.67;;
18377;Laerm;9315;52.624;13.544;2023-10-31T06:37:37;72.26;50.52;83.41;;
18377;Laerm;9315;52.624;13.544;2023-10-31T06:40:06;72.79;50.70;80.58;;
18377;Laerm;9315;52.624;13.544;2023-10-31T06:42:35;73.59;48.64;81.27;;
18377;Laerm;9315;52.624;13.544;2023-10-31T06:45:04;74.54;49.31;82.84;;
18377;Laerm;9315;52.624;13.544;2023-10-31T06:47:32;75.02;51.28;88.00;;
18377;Laerm;9315;52.624;13.544;2023-10-31T06:49:59;71.91;48.05;82.08;;
18377;Laerm;9315;52.624;13.544;2023-10-31T06:52:26;74.59;51.04;83.37;;
18377;Laerm;9315;52.624;13.544;2023-10-31T06:54:54;74.35;51.49;82.49;;
18377;Laerm;9315;52.624;13.544;2023-10-31T06:57:22;73.65;51.91;83.71;;
18377;Laerm;9315;52.624;13.544;2023-10-31T06:59:49;72.35;49.47;83.30;;
18377;Laerm;9315;52.624;13.544;2023-10-31T07:02:17;73.08;53.26;82.60;;
18377;Laerm;9315;52.624;13.544;2023-10-31T07:04:44;74.36;49.39;83.56;;
18377;Laerm;9315;52.624;13.544;2023-10-31T07:07:12;72.92;48.38;84.54;;
18377;Laerm;9315;52.624;13.544;2023-10-31T07:09:39;72.79;51.87;83.25;;
18377;Laerm;9315;52.624;13.544;2023-10-31T07:12:07;74.53;51.93;85.89;;
18377;Laerm;9315;52.624;13.544;2023-10-31T07:14:35;73.73;51.03;83.20;;
18377;Laerm;9315;52.624;13.544;2023-10-31T07:17:03;72.42;51.09;84.94;;
18377;Laerm;9315;52.624;13.544;2023-10-31T07:19:30;75.64;52.06;83.63;;
18377;Laerm;9315;52.624;13.544;2023-10-31T07:21:58;73.23;49.79;82.53;;
18377;Laerm;9315;52.624;13.544;2023-10-31T07:24:25;74.60;51.44;83.43;;
18377;Laerm;9315;52.624;13.544;2023-10-31T07:26:55;73.20;51.57;84.94;;
18377;Laerm;9315;52.624;13.544;2023-10-31T07:29:22;72.07;48.26;81.27;;
18377;Laerm;9315;52.624;13.544;2023-10-31T07:31:50;73.36;50.14;82.45;;
18377;Laerm;9315;52.624;13.544;2023-10-31T07:34:17;73.63;54.72;81.81;;
18377;Laerm;9315;52.624;13.544;2023-10-31T07:36:45;72.83;54.56;80.60;;
18377;Laerm;9315;52.624;13.544;2023-10-31T07:39:12;73.68;50.06;83.40;;
18377;Laerm;9315;52.624;13.544;2023-10-31T07:41:41;74.19;53.67;81.91;;
18377;Laerm;9315;52.624;13.544;2023-10-31T07:44:09;71.05;55.51;82.19;;
18377;Laerm;9315;52.624;13.544;2023-10-31T07:46:37;72.07;51.96;82.42;;
18377;Laerm;9315;52.624;13.544;2023-10-31T07:49:04;73.35;51.61;82.10;;
18377;Laerm;9315;52.624;13.544;2023-10-31T07:51:35;71.06;48.76;79.40;;
18377;Laerm;9315;52.624;13.544;2023-10-31T07:54:05;70.83;50.82;79.86;;
18377;Laerm;9315;52.624;13.544;2023-10-31T07:56:42;69.65;51.25;78.76;;
18377;Laerm;9315;52.624;13.544;2023-10-31T07:59:12;73.01;52.43;81.86;;
18377;Laerm;9315;52.624;13.544;2023-10-31T08:01:43;71.84;51.75;81.21;;
18377;Laerm;9315;52.624;13.544;2023-10-31T08:04:14;70.91;50.16;83.09;;
18377;Laerm;9315;52.624;13.544;2023-10-31T08:06:45;70.98;52.89;81.40;;
18377;Laerm;9315;52.624;13.544;2023-10-31T08:09:36;70.93;51.02;83.58;;
18377;Laerm;9315;52.624;13.544;2023-10-31T08:12:19;71.04;51.81;79.90;;
18377;Laerm;9315;52.624;13.544;2023-10-31T08:14:50;73.50;51.43;85.27;;
18377;Laerm;9315;52.624;13.544;2023-10-31T08:17:42;73.22;51.29;82.13;;
18377;Laerm;9315;52.624;13.544;2023-10-31T08:20:25;71.66;55.23;79.69;;
18377;Laerm;9315;52.624;13.544;2023-10-31T08:22:56;71.81;53.20;82.27;;
18377;Laerm;9315;52.624;13.544;2023-10-31T08:25:23;72.64;55.17;80.61;;
18377;Laerm;9315;52.624;13.544;2023-10-31T08:28:29;72.07;50.19;82.77;;
18377;Laerm;9315;52.624;13.544;2023-10-31T08:31:04;70.78;52.70;77.56;;
18377;Laerm;9315;52.624;13.544;2023-10-31T08:33:42;71.22;53.28;80.81;;
18377;Laerm;9315;52.624;13.544;2023-10-31T08:36:23;69.55;52.01;77.34;;
18377;Laerm;9315;52.624;13.544;2023-10-31T08:39:00;70.23;49.76;77.85;;
18377;Laerm;9315;52.624;13.544;2023-10-31T08:41:36;69.60;50.21;77.35;;
18377;Laerm;9315;52.624;13.544;2023-10-31T08:44:06;70.25;51.21;78.64;;
18377;Laerm;9315;52.624;13.544;2023-10-31T08:46:34;72.85;52.09;85.80;;
18377;Laerm;9315;52.624;13.544;2023-10-31T08:49:02;71.36;49.90;79.85;;
18377;Laerm;9315;52.624;13.544;2023-10-31T08:51:30;69.71;51.93;77.22;;
18377;Laerm;9315;52.624;13.544;2023-10-31T08:53:57;72.57;51.62;80.81;;
18377;Laerm;9315;52.624;13.544;2023-10-31T08:56:25;71.06;48.88;80.04;;
18377;Laerm;9315;52.624;13.544;2023-10-31T08:58:54;70.53;49.86;78.24;;
18377;Laerm;9315;52.624;13.544;2023-10-31T09:01:22;71.28;53.65;80.11;;
18377;Laerm;9315;52.624;13.544;2023-10-31T09:03:50;70.47;52.52;78.76;;
18377;Laerm;9315;52.624;13.544;2023-10-31T09:06:19;70.06;49.54;79.19;;
18377;Laerm;9315;52.624;13.544;2023-10-31T09:08:47;71.44;53.00;80.13;;
18377;Laerm;9315;52.624;13.544;2023-10-31T09:11:17;69.96;54.90;79.73;;
18377;Laerm;9315;52.624;13.544;2023-10-31T09:13:45;70.16;51.73;77.99;;
18377;Laerm;9315;52.624;13.544;2023-10-31T09:16:15;71.47;52.72;83.39;;
18377;Laerm;9315;52.624;13.544;2023-10-31T09:18:42;70.64;50.50;77.51;;
18377;Laerm;9315;52.624;13.544;2023-10-31T09:21:11;69.27;52.92;77.28;;
18377;Laerm;9315;52.624;13.544;2023-10-31T09:23:41;71.89;56.22;84.81;;
18377;Laerm;9315;52.624;13.544;2023-10-31T09:26:08;68.87;51.74;78.16;;
18377;Laerm;9315;52.624;13.544;2023-10-31T09:28:36;70.77;52.34;77.75;;
18377;Laerm;9315;52.624;13.544;2023-10-31T09:31:06;71.46;50.35;78.44;;
18377;Laerm;9315;52.624;13.544;2023-10-31T09:33:36;71.89;51.16;79.49;;
18377;Laerm;9315;52.624;13.544;2023-10-31T09:36:04;69.48;51.62;81.32;;
18377;Laerm;9315;52.624;13.544;2023-10-31T09:38:32;70.66;48.66;77.96;;
18377;Laerm;9315;52.624;13.544;2023-10-31T09:41:00;68.25;50.79;79.31;;
18377;Laerm;9315;52.624;13.544;2023-10-31T09:43:28;68.42;50.33;79.74;;
18377;Laerm;9315;52.624;13.544;2023-10-31T09:45:59;79.62;53.11;99.30;;
18377;Laerm;9315;52.624;13.544;2023-10-31T09:48:31;69.81;55.76;82.32;;
18377;Laerm;9315;52.624;13.544;2023-10-31T09:51:00;70.18;53.72;77.92;;
18377;Laerm;9315;52.624;13.544;2023-10-31T09:53:28;68.10;54.15;76.00;;
18377;Laerm;9315;52.624;13.544;2023-10-31T09:55:57;70.60;53.02;79.30;;
18377;Laerm;9315;52.624;13.544;2023-10-31T09:58:24;68.65;52.44;75.44;;
18377;Laerm;9315;52.624;13.544;2023-10-31T10:00:52;70.19;51.72;81.77;;
18377;Laerm;9315;52.624;13.544;2023-10-31T10:03:20;69.60;53.05;76.71;;
18377;Laerm;9315;52.624;13.544;2023-10-31T10:05:51;69.21;54.94;78.62;;
18377;Laerm;9315;52.624;13.544;2023-10-31T10:08:20;70.13;57.12;78.57;;
18377;Laerm;9315;52.624;13.544;2023-10-31T10:10:50;69.88;54.25;77.39;;
18377;Laerm;9315;52.624;13.544;2023-10-31T10:13:19;70.20;55.03;79.81;;
18377;Laerm;9315;52.624;13.544;2023-10-31T10:15:51;68.98;51.31;77.67;;
18377;Laerm;9315;52.624;13.544;2023-10-31T10:18:31;70.39;51.96;79.99;;
18377;Laerm;9315;52.624;13.544;2023-10-31T10:21:02;69.68;54.80;80.64;;
18377;Laerm;9315;52.624;13.544;2023-10-31T10:23:31;69.62;54.82;79.22;;
18377;Laerm;9315;52.624;13.544;2023-10-31T10:26:03;67.32;52.68;76.30;;
18377;Laerm;9315;52.624;13.544;2023-10-31T10:28:30;69.92;52.29;77.85;;
18377;Laerm;9315;52.624;13.544;2023-10-31T10:31:01;69.41;54.14;77.99;;
18377;Laerm;9315;52.624;13.544;2023-10-31T10:33:28;69.62;51.98;76.90;;
18377;Laerm;9315;52.624;13.544;2023-10-31T10:35:55;68.91;53.53;79.49;;
18377;Laerm;9315;52.624;13.544;2023-10-31T10:38:24;70.30;52.04;85.58;;
18377;Laerm;9315;52.624;13.544;2023-10-31T10:40:53;70.42;53.43;83.77;;
18377;Laerm;9315;52.624;13.544;2023-10-31T10:43:25;69.95;52.02;78.63;;
18377;Laerm;9315;52.624;13.544;2023-10-31T10:45:58;69.53;53.55;77.46;;
18377;Laerm;9315;52.624;13.544;2023-10-31T10:48:29;68.43;51.98;78.23;;
18377;Laerm;9315;52.624;13.544;2023-10-31T10:51:29;67.67;53.08;77.58;;
18377;Laerm;9315;52.624;13.544;2023-10-31T10:54:09;68.86;50.32;78.99;;
18377;Laerm;9315;52.624;13.544;2023-10-31T10:56:46;69.10;51.92;79.20;;
18377;Laerm;9315;52.624;13.544;2023-10-31T11:02:10;70.78;51.18;84.99;;
18377;Laerm;9315;52.624;13.544;2023-10-31T11:04:39;67.84;50.51;77.09;;
18377;Laerm;9315;52.624;13.544;2023-10-31T11:07:12;66.73;50.23;75.92;;
18377;Laerm;9315;52.624;13.544;2023-10-31T11:09:41;68.51;54.81;76.22;;
18377;Laerm;9315;52.624;13.544;2023-10-31T11:12:12;69.97;52.09;80.17;;
18377;Laerm;9315;52.624;13.544;2023-10-31T11:14:40;69.70;51.28;78.12;;
18377;Laerm;9315;52.624;13.544;2023-10-31T11:17:30;69.31;53.02;78.43;;
18377;Laerm;9315;52.624;13.544;2023-10-31T11:19:59;68.60;53.45;76.24;;
18377;Laerm;9315;52.624;13.544;2023-10-31T11:22:38;69.69;51.86;77.48;;
18377;Laerm;9315;52.624;13.544;2023-10-31T11:25:22;69.33;51.72;77.08;;
18377;Laerm;9315;52.624;13.544;2023-10-31T11:28:16;69.42;51.05;79.87;;
18377;Laerm;9315;52.624;13.544;2023-10-31T11:30:49;68.21;51.10;77.02;;
18377;Laerm;9315;52.624;13.544;2023-10-31T11:33:20;68.85;51.70;75.73;;
18377;Laerm;9315;52.624;13.544;2023-10-31T11:36:01;68.88;51.05;76.42;;
18377;Laerm;9315;52.624;13.544;2023-10-31T11:38:37;69.38;53.36;78.12;;
18377;Laerm;9315;52.624;13.544;2023-10-31T11:41:05;68.02;50.97;76.12;;
18377;Laerm;9315;52.624;13.544;2023-10-31T11:46:27;69.30;51.10;81.90;;
18377;Laerm;9315;52.624;13.544;2023-10-31T11:48:57;70.18;54.48;82.22;;
18377;Laerm;9315;52.624;13.544;2023-10-31T11:51:25;69.63;54.39;76.43;;
18377;Laerm;9315;52.624;13.544;2023-10-31T11:53:53;68.13;56.24;76.92;;
18377;Laerm;9315;52.624;13.544;2023-10-31T11:56:22;69.39;53.51;77.87;;
18377;Laerm;9315;52.624;13.544;2023-10-31T11:59:05;68.85;51.47;77.74;;
18377;Laerm;9315;52.624;13.544;2023-10-31T12:01:46;68.94;53.06;76.31;;
18377;Laerm;9315;52.624;13.544;2023-10-31T12:04:23;71.67;56.86;82.38;;
18377;Laerm;9315;52.624;13.544;2023-10-31T12:06:59;69.57;55.54;79.67;;
18377;Laerm;9315;52.624;13.544;2023-10-31T12:09:27;69.67;55.29;77.20;;
18377;Laerm;9315;52.624;13.544;2023-10-31T12:11:58;66.16;53.23;74.72;;
18377;Laerm;9315;52.624;13.544;2023-10-31T12:14:25;69.59;51.80;81.45;;
18377;Laerm;9315;52.624;13.544;2023-10-31T12:16:53;68.48;50.39;77.69;;
18377;Laerm;9315;52.624;13.544;2023-10-31T12:19:22;69.09;52.83;79.67;;
18377;Laerm;9315;52.624;13.544;2023-10-31T12:21:50;68.29;52.31;75.76;;
18377;Laerm;9315;52.624;13.544;2023-10-31T12:24:18;69.68;55.12;77.50;;
18377;Laerm;9315;52.624;13.544;2023-10-31T12:26:46;71.22;52.09;84.54;;
18377;Laerm;9315;52.624;13.544;2023-10-31T12:29:17;69.26;51.90;80.30;;
18377;Laerm;9315;52.624;13.544;2023-10-31T12:31:54;68.67;52.47;82.14;;
18377;Laerm;9315;52.624;13.544;2023-10-31T12:34:24;69.38;52.10;78.13;;
18377;Laerm;9315;52.624;13.544;2023-10-31T12:36:54;69.63;52.64;81.47;;
18377;Laerm;9315;52.624;13.544;2023-10-31T12:39:27;69.32;54.22;79.43;;
18377;Laerm;9315;52.624;13.544;2023-10-31T12:41:55;69.22;50.04;77.64;;
18377;Laerm;9315;52.624;13.544;2023-10-31T12:44:26;69.38;53.15;78.00;;
18377;Laerm;9315;52.624;13.544;2023-10-31T12:46:56;68.25;50.35;75.56;;
18377;Laerm;9315;52.624;13.544;2023-10-31T12:49:23;68.80;51.13;77.19;;
18377;Laerm;9315;52.624;13.544;2023-10-31T12:52:10;67.94;51.88;76.73;;
18377;Laerm;9315;52.624;13.544;2023-10-31T12:54:38;68.67;51.68;78.56;;
18377;Laerm;9315;52.624;13.544;2023-10-31T12:57:08;69.29;52.40;76.53;;
18377;Laerm;9315;52.624;13.544;2023-10-31T12:59:38;70.07;51.89;79.70;;
18377;Laerm;9315;52.624;13.544;2023-10-31T13:02:07;69.18;53.06;81.08;;
18377;Laerm;9315;52.624;13.544;2023-10-31T13:04:36;67.20;49.98;79.51;;
18377;Laerm;9315;52.624;13.544;2023-10-31T13:07:07;70.98;52.15;79.64;;
18377;Laerm;9315;52.624;13.544;2023-10-31T13:09:37;69.30;49.20;78.40;;
18377;Laerm;9315;52.624;13.544;2023-10-31T13:12:10;69.73;52.10;78.92;;
18377;Laerm;9315;52.624;13.544;2023-10-31T13:14:45;68.82;51.00;77.57;;
18377;Laerm;9315;52.624;13.544;2023-10-31T13:17:13;70.53;54.26;78.16;;
18377;Laerm;9315;52.624;13.544;2023-10-31T13:19:40;70.14;52.42;80.06;;
18377;Laerm;9315;52.624;13.544;2023-10-31T13:22:11;70.66;56.35;79.98;;
18377;Laerm;9315;52.624;13.544;2023-10-31T13:24:41;68.88;50.37;76.34;;
18377;Laerm;9315;52.624;13.544;2023-10-31T13:27:10;69.80;53.04;76.91;;
18377;Laerm;9315;52.624;13.544;2023-10-31T13:29:43;69.82;54.85;78.29;;
18377;Laerm;9315;52.624;13.544;2023-10-31T13:32:13;70.39;54.09;77.91;;
18377;Laerm;9315;52.624;13.544;2023-10-31T13:34:40;68.75;52.71;77.74;;
18377;Laerm;9315;52.624;13.544;2023-10-31T13:37:08;69.43;52.14;78.77;;
18377;Laerm;9315;52.624;13.544;2023-10-31T13:39:36;68.99;51.16;76.91;;
18377;Laerm;9315;52.624;13.544;2023-10-31T13:42:04;68.29;53.67;78.13;;
18377;Laerm;9315;52.624;13.544;2023-10-31T13:44:32;68.43;53.25;80.21;;
18377;Laerm;9315;52.624;13.544;2023-10-31T13:46:59;68.79;52.67;76.57;;
18377;Laerm;9315;52.624;13.544;2023-10-31T13:49:27;70.19;54.04;77.01;;
18377;Laerm;9315;52.624;13.544;2023-10-31T13:51:55;70.07;56.35;79.72;;
18377;Laerm;9315;52.624;13.544;2023-10-31T13:54:22;69.11;54.16;77.29;;
18377;Laerm;9315;52.624;13.544;2023-10-31T13:56:50;70.15;51.59;78.22;;
18377;Laerm;9315;52.624;13.544;2023-10-31T13:59:17;69.23;51.88;83.57;;
18377;Laerm;9315;52.624;13.544;2023-10-31T14:01:46;70.14;56.24;76.47;;